sensor_id;sensor_type;location;lat;lon;timestamp;temperature;humidity
26621;DHT22;14253;44.840;10.444;2022-12-18T00:00:59;4.80;99.90
26621;DHT22;14253;44.840;10.444;2022-12-18T00:03:25;4.80;99.90
26621;DHT22;14253;44.840;10.444;2022-12-18T00:05:52;4.80;99.90
26621;DHT22;14253;44.840;10.444;2022-12-18T00:08:18;4.80;99.90
26621;DHT22;14253;44.840;10.444;2022-12-18T00:10:45;4.80;99.90
26621;DHT22;14253;44.840;10.444;2022-12-18T00:13:12;4.80;99.90
26621;DHT22;14253;44.840;10.444;2022-12-18T00:15:39;4.80;99.90
26621;DHT22;14253;44.840;10.444;2022-12-18T00:18:05;4.80;99.90
26621;DHT22;14253;44.840;10.444;2022-12-18T00:20:36;4.70;99.90
26621;DHT22;14253;44.840;10.444;2022-12-18T00:23:02;4.70;99.90
26621;DHT22;14253;44.840;10.444;2022-12-18T00:25:28;4.80;99.90
26621;DHT22;14253;44.840;10.444;2022-12-18T00:27:54;4.80;99.90
26621;DHT22;14253;44.840;10.444;2022-12-18T00:30:20;4.80;99.90
26621;DHT22;14253;44.840;10.444;2022-12-18T00:32:46;4.80;99.90
26621;DHT22;14253;44.840;10.444;2022-12-18T00:35:12;4.80;99.90
26621;DHT22;14253;44.840;10.444;2022-12-18T00:37:38;4.80;99.90
26621;DHT22;14253;44.840;10.444;2022-12-18T00:40:04;4.80;99.90
26621;DHT22;14253;44.840;10.444;2022-12-18T00:42:30;4.80;99.90
26621;DHT22;14253;44.840;10.444;2022-12-18T00:45:14;4.80;99.90
26621;DHT22;14253;44.840;10.444;2022-12-18T00:47:40;4.80;99.90
26621;DHT22;14253;44.840;10.444;2022-12-18T00:50:07;4.80;99.90
26621;DHT22;14253;44.840;10.444;2022-12-18T00:52:34;4.80;99.90
26621;DHT22;14253;44.840;10.444;2022-12-18T00:55:00;4.80;99.90
26621;DHT22;14253;44.840;10.444;2022-12-18T00:57:25;4.80;99.90
26621;DHT22;14253;44.840;10.444;2022-12-18T00:59:51;4.90;99.90
26621;DHT22;14253;44.840;10.444;2022-12-18T01:02:17;4.90;99.90
26621;DHT22;14253;44.840;10.444;2022-12-18T01:04:43;4.90;99.90
26621;DHT22;14253;44.840;10.444;2022-12-18T01:07:09;4.90;99.90
26621;DHT22;14253;44.840;10.444;2022-12-18T01:09:35;4.90;99.90
26621;DHT22;14253;44.840;10.444;2022-12-18T01:12:01;4.90;99.90
26621;DHT22;14253;44.840;10.444;2022-12-18T01:14:27;4.80;99.90
26621;DHT22;14253;44.840;10.444;2022-12-18T01:16:53;4.90;99.90
26621;DHT22;14253;44.840;10.444;2022-12-18T01:19:19;4.90;99.90
26621;DHT22;14253;44.840;10.444;2022-12-18T01:21:46;4.90;99.90
26621;DHT22;14253;44.840;10.444;2022-12-18T01:24:12;4.80;99.90
26621;DHT22;14253;44.840;10.444;2022-12-18T01:26:38;4.80;99.90
26621;DHT22;14253;44.840;10.444;2022-12-18T01:29:04;4.80;99.90
26621;DHT22;14253;44.840;10.444;2022-12-18T01:31:32;4.80;99.90
26621;DHT22;14253;44.840;10.444;2022-12-18T01:34:01;4.80;99.90
26621;DHT22;14253;44.840;10.444;2022-12-18T01:36:30;4.80;99.90
26621;DHT22;14253;44.840;10.444;2022-12-18T01:38:58;4.70;99.90
26621;DHT22;14253;44.840;10.444;2022-12-18T01:41:27;4.70;99.90
26621;DHT22;14253;44.840;10.444;2022-12-18T01:50:57;4.60;99.90
26621;DHT22;14253;44.840;10.444;2022-12-18T01:53:11;4.60;99.90
26621;DHT22;14253;44.840;10.444;2022-12-18T01:55:53;4.60;99.90
26621;DHT22;14253;44.840;10.444;2022-12-18T02:01:07;4.50;99.90
26621;DHT22;14253;44.840;10.444;2022-12-18T02:03:33;4.40;99.90
26621;DHT22;14253;44.840;10.444;2022-12-18T02:11:38;4.30;99.90
26621;DHT22;14253;44.840;10.444;2022-12-18T02:17:21;4.10;99.90
26621;DHT22;14253;44.840;10.444;2022-12-18T02:27:45;3.80;99.90
26621;DHT22;14253;44.840;10.444;2022-12-18T02:30:13;3.70;99.90
26621;DHT22;14253;44.840;10.444;2022-12-18T02:32:43;3.60;99.90
26621;DHT22;14253;44.840;10.444;2022-12-18T02:35:17;3.60;99.90
26621;DHT22;14253;44.840;10.444;2022-12-18T02:37:49;3.60;99.90
26621;DHT22;14253;44.840;10.444;2022-12-18T02:40:17;3.50;99.90
26621;DHT22;14253;44.840;10.444;2022-12-18T02:42:44;3.50;99.90
26621;DHT22;14253;44.840;10.444;2022-12-18T02:45:13;3.60;99.90
26621;DHT22;14253;44.840;10.444;2022-12-18T02:47:43;3.60;99.90
26621;DHT22;14253;44.840;10.444;2022-12-18T02:56:14;3.60;99.90
26621;DHT22;14253;44.840;10.444;2022-12-18T02:59:03;3.60;99.90
26621;DHT22;14253;44.840;10.444;2022-12-18T03:01:56;3.60;99.90
26621;DHT22;14253;44.840;10.444;2022-12-18T03:04:34;3.70;99.90
26621;DHT22;14253;44.840;10.444;2022-12-18T03:07:08;3.60;99.90
26621;DHT22;14253;44.840;10.444;2022-12-18T03:09:39;3.70;99.90
26621;DHT22;14253;44.840;10.444;2022-12-18T03:12:34;3.70;99.90
26621;DHT22;14253;44.840;10.444;2022-12-18T03:15:03;3.70;99.90
26621;DHT22;14253;44.840;10.444;2022-12-18T03:17:32;3.70;99.90
26621;DHT22;14253;44.840;10.444;2022-12-18T03:20:06;3.70;99.90
26621;DHT22;14253;44.840;10.444;2022-12-18T03:22:35;3.70;99.90
26621;DHT22;14253;44.840;10.444;2022-12-18T03:25:07;3.70;99.90
26621;DHT22;14253;44.840;10.444;2022-12-18T03:27:37;3.70;99.90
26621;DHT22;14253;44.840;10.444;2022-12-18T03:30:10;3.70;99.90
26621;DHT22;14253;44.840;10.444;2022-12-18T03:32:50;3.70;99.90
26621;DHT22;14253;44.840;10.444;2022-12-18T03:35:26;3.80;99.90
26621;DHT22;14253;44.840;10.444;2022-12-18T03:37:55;3.80;99.90
26621;DHT22;14253;44.840;10.444;2022-12-18T03:40:50;3.80;99.90
26621;DHT22;14253;44.840;10.444;2022-12-18T03:43:37;3.80;99.90
26621;DHT22;14253;44.840;10.444;2022-12-18T03:46:53;3.80;99.90
26621;DHT22;14253;44.840;10.444;2022-12-18T03:49:25;3.80;99.90
26621;DHT22;14253;44.840;10.444;2022-12-18T03:52:09;3.90;99.90
26621;DHT22;14253;44.840;10.444;2022-12-18T03:54:39;3.90;99.90
26621;DHT22;14253;44.840;10.444;2022-12-18T03:57:16;3.90;99.90
26621;DHT22;14253;44.840;10.444;2022-12-18T03:59:45;3.90;99.90
26621;DHT22;14253;44.840;10.444;2022-12-18T04:02:15;3.90;99.90
26621;DHT22;14253;44.840;10.444;2022-12-18T04:04:43;3.90;99.90
26621;DHT22;14253;44.840;10.444;2022-12-18T04:07:10;3.90;99.90
26621;DHT22;14253;44.840;10.444;2022-12-18T04:09:39;3.90;99.90
26621;DHT22;14253;44.840;10.444;2022-12-18T04:12:08;3.90;99.90
26621;DHT22;14253;44.840;10.444;2022-12-18T04:14:34;3.90;99.90
26621;DHT22;14253;44.840;10.444;2022-12-18T04:17:03;4.00;99.90
26621;DHT22;14253;44.840;10.444;2022-12-18T04:19:31;4.00;99.90
26621;DHT22;14253;44.840;10.444;2022-12-18T04:21:58;3.90;99.90
26621;DHT22;14253;44.840;10.444;2022-12-18T04:24:25;3.90;99.90
26621;DHT22;14253;44.840;10.444;2022-12-18T04:27:14;3.90;99.90
26621;DHT22;14253;44.840;10.444;2022-12-18T04:29:45;3.90;99.90
26621;DHT22;14253;44.840;10.444;2022-12-18T04:32:11;3.90;99.90
26621;DHT22;14253;44.840;10.444;2022-12-18T04:34:39;3.90;99.90
26621;DHT22;14253;44.840;10.444;2022-12-18T04:37:05;4.00;99.90
26621;DHT22;14253;44.840;10.444;2022-12-18T04:39:31;3.90;99.90
26621;DHT22;14253;44.840;10.444;2022-12-18T04:42:03;3.90;99.90
26621;DHT22;14253;44.840;10.444;2022-12-18T04:44:29;3.90;99.90
26621;DHT22;14253;44.840;10.444;2022-12-18T04:46:55;3.90;99.90
26621;DHT22;14253;44.840;10.444;2022-12-18T04:49:21;4.00;99.90
26621;DHT22;14253;44.840;10.444;2022-12-18T04:51:47;4.00;99.90
26621;DHT22;14253;44.840;10.444;2022-12-18T04:54:13;4.00;99.90
26621;DHT22;14253;44.840;10.444;2022-12-18T04:56:39;4.00;99.90
26621;DHT22;14253;44.840;10.444;2022-12-18T04:59:05;3.90;99.90
26621;DHT22;14253;44.840;10.444;2022-12-18T05:01:31;3.90;99.90
26621;DHT22;14253;44.840;10.444;2022-12-18T05:03:57;3.90;99.90
26621;DHT22;14253;44.840;10.444;2022-12-18T05:06:23;3.80;99.90
26621;DHT22;14253;44.840;10.444;2022-12-18T05:08:49;3.80;99.90
26621;DHT22;14253;44.840;10.444;2022-12-18T05:11:15;3.80;99.90
26621;DHT22;14253;44.840;10.444;2022-12-18T05:13:43;3.80;99.90
26621;DHT22;14253;44.840;10.444;2022-12-18T05:16:09;3.80;99.90
26621;DHT22;14253;44.840;10.444;2022-12-18T05:18:36;3.90;99.90
26621;DHT22;14253;44.840;10.444;2022-12-18T05:21:02;3.80;99.90
26621;DHT22;14253;44.840;10.444;2022-12-18T05:23:28;3.80;99.90
26621;DHT22;14253;44.840;10.444;2022-12-18T05:25:57;3.80;99.90
26621;DHT22;14253;44.840;10.444;2022-12-18T05:28:25;3.80;99.90
26621;DHT22;14253;44.840;10.444;2022-12-18T05:30:54;3.80;99.90
26621;DHT22;14253;44.840;10.444;2022-12-18T05:33:21;3.90;99.90
26621;DHT22;14253;44.840;10.444;2022-12-18T05:35:55;3.80;99.90
26621;DHT22;14253;44.840;10.444;2022-12-18T05:38:23;3.80;99.90
26621;DHT22;14253;44.840;10.444;2022-12-18T05:40:50;3.80;99.90
26621;DHT22;14253;44.840;10.444;2022-12-18T05:43:17;3.90;99.90
26621;DHT22;14253;44.840;10.444;2022-12-18T05:45:43;3.90;1.00
26621;DHT22;14253;44.840;10.444;2022-12-18T05:48:10;3.90;1.00
26621;DHT22;14253;44.840;10.444;2022-12-18T05:50:41;3.90;1.00
26621;DHT22;14253;44.840;10.444;2022-12-18T05:53:07;4.00;1.00
26621;DHT22;14253;44.840;10.444;2022-12-18T05:55:34;4.00;1.00
26621;DHT22;14253;44.840;10.444;2022-12-18T05:58:01;3.90;1.00
26621;DHT22;14253;44.840;10.444;2022-12-18T06:00:28;4.00;1.00
26621;DHT22;14253;44.840;10.444;2022-12-18T06:02:54;3.90;1.00
26621;DHT22;14253;44.840;10.444;2022-12-18T06:05:20;3.90;1.00
26621;DHT22;14253;44.840;10.444;2022-12-18T06:07:46;4.00;1.00
26621;DHT22;14253;44.840;10.444;2022-12-18T06:10:12;4.00;1.00
26621;DHT22;14253;44.840;10.444;2022-12-18T06:12:38;4.00;1.00
26621;DHT22;14253;44.840;10.444;2022-12-18T06:15:04;4.00;1.00
26621;DHT22;14253;44.840;10.444;2022-12-18T06:17:31;4.00;1.00
26621;DHT22;14253;44.840;10.444;2022-12-18T06:19:57;4.00;1.00
26621;DHT22;14253;44.840;10.444;2022-12-18T06:22:24;4.00;1.00
26621;DHT22;14253;44.840;10.444;2022-12-18T06:24:50;4.00;1.00
26621;DHT22;14253;44.840;10.444;2022-12-18T06:27:16;4.00;1.00
26621;DHT22;14253;44.840;10.444;2022-12-18T06:29:42;4.00;1.00
26621;DHT22;14253;44.840;10.444;2022-12-18T06:32:08;4.00;1.00
26621;DHT22;14253;44.840;10.444;2022-12-18T06:34:36;4.00;1.00
26621;DHT22;14253;44.840;10.444;2022-12-18T06:37:03;4.00;1.00
26621;DHT22;14253;44.840;10.444;2022-12-18T06:39:29;4.00;1.00
26621;DHT22;14253;44.840;10.444;2022-12-18T06:41:55;4.00;1.00
26621;DHT22;14253;44.840;10.444;2022-12-18T06:44:21;4.00;1.00
26621;DHT22;14253;44.840;10.444;2022-12-18T06:46:47;4.00;1.00
26621;DHT22;14253;44.840;10.444;2022-12-18T06:49:13;4.00;1.00
26621;DHT22;14253;44.840;10.444;2022-12-18T06:51:39;4.00;1.00
26621;DHT22;14253;44.840;10.444;2022-12-18T06:54:05;4.10;1.00
26621;DHT22;14253;44.840;10.444;2022-12-18T06:56:31;4.10;1.00
26621;DHT22;14253;44.840;10.444;2022-12-18T06:58:57;4.10;1.00
26621;DHT22;14253;44.840;10.444;2022-12-18T07:01:23;4.10;1.00
26621;DHT22;14253;44.840;10.444;2022-12-18T07:03:53;4.10;1.00
26621;DHT22;14253;44.840;10.444;2022-12-18T07:06:22;4.20;1.00
26621;DHT22;14253;44.840;10.444;2022-12-18T07:08:49;4.20;1.00
26621;DHT22;14253;44.840;10.444;2022-12-18T07:11:17;4.20;1.00
26621;DHT22;14253;44.840;10.444;2022-12-18T07:13:43;4.10;1.00
26621;DHT22;14253;44.840;10.444;2022-12-18T07:16:15;4.10;1.00
26621;DHT22;14253;44.840;10.444;2022-12-18T07:18:42;4.10;1.00
26621;DHT22;14253;44.840;10.444;2022-12-18T07:21:12;4.20;1.00
26621;DHT22;14253;44.840;10.444;2022-12-18T07:23:38;4.10;1.00
26621;DHT22;14253;44.840;10.444;2022-12-18T07:26:11;4.20;1.00
26621;DHT22;14253;44.840;10.444;2022-12-18T07:28:38;4.20;1.00
26621;DHT22;14253;44.840;10.444;2022-12-18T07:31:09;4.10;1.00
26621;DHT22;14253;44.840;10.444;2022-12-18T07:33:35;4.20;1.00
26621;DHT22;14253;44.840;10.444;2022-12-18T07:36:03;4.20;1.00
26621;DHT22;14253;44.840;10.444;2022-12-18T07:38:30;4.20;1.00
26621;DHT22;14253;44.840;10.444;2022-12-18T07:41:11;4.20;1.00
26621;DHT22;14253;44.840;10.444;2022-12-18T07:43:38;4.30;1.00
26621;DHT22;14253;44.840;10.444;2022-12-18T07:46:05;4.30;1.00
26621;DHT22;14253;44.840;10.444;2022-12-18T07:48:31;4.20;1.00
26621;DHT22;14253;44.840;10.444;2022-12-18T07:51:05;4.20;1.00
26621;DHT22;14253;44.840;10.444;2022-12-18T07:53:33;4.10;1.00
26621;DHT22;14253;44.840;10.444;2022-12-18T07:56:01;4.20;1.00
26621;DHT22;14253;44.840;10.444;2022-12-18T07:58:29;4.30;1.00
26621;DHT22;14253;44.840;10.444;2022-12-18T08:01:11;4.30;1.00
26621;DHT22;14253;44.840;10.444;2022-12-18T08:03:39;4.30;1.00
26621;DHT22;14253;44.840;10.444;2022-12-18T08:06:09;4.30;1.00
26621;DHT22;14253;44.840;10.444;2022-12-18T08:08:35;4.40;1.00
26621;DHT22;14253;44.840;10.444;2022-12-18T08:11:02;4.40;1.00
26621;DHT22;14253;44.840;10.444;2022-12-18T08:13:28;4.40;1.00
26621;DHT22;14253;44.840;10.444;2022-12-18T08:16:03;4.40;1.00
26621;DHT22;14253;44.840;10.444;2022-12-18T08:18:29;4.50;1.00
26621;DHT22;14253;44.840;10.444;2022-12-18T08:20:55;4.50;1.00
26621;DHT22;14253;44.840;10.444;2022-12-18T08:23:21;4.50;1.00
26621;DHT22;14253;44.840;10.444;2022-12-18T08:25:47;4.50;1.00
26621;DHT22;14253;44.840;10.444;2022-12-18T08:28:13;4.50;1.00
26621;DHT22;14253;44.840;10.444;2022-12-18T08:30:39;4.40;1.00
26621;DHT22;14253;44.840;10.444;2022-12-18T08:33:05;4.40;1.00
26621;DHT22;14253;44.840;10.444;2022-12-18T08:35:35;4.30;1.00
26621;DHT22;14253;44.840;10.444;2022-12-18T08:38:02;4.30;1.00
26621;DHT22;14253;44.840;10.444;2022-12-18T08:40:28;4.20;1.00
26621;DHT22;14253;44.840;10.444;2022-12-18T08:42:55;4.20;1.00
26621;DHT22;14253;44.840;10.444;2022-12-18T08:45:39;4.20;1.00
26621;DHT22;14253;44.840;10.444;2022-12-18T08:48:05;4.10;1.00
26621;DHT22;14253;44.840;10.444;2022-12-18T08:50:31;4.20;1.00
26621;DHT22;14253;44.840;10.444;2022-12-18T08:52:57;4.30;1.00
26621;DHT22;14253;44.840;10.444;2022-12-18T08:55:23;4.30;1.00
26621;DHT22;14253;44.840;10.444;2022-12-18T08:57:49;4.30;1.00
26621;DHT22;14253;44.840;10.444;2022-12-18T09:00:15;4.30;1.00
26621;DHT22;14253;44.840;10.444;2022-12-18T09:02:42;4.30;1.00
26621;DHT22;14253;44.840;10.444;2022-12-18T09:05:07;4.30;1.00
26621;DHT22;14253;44.840;10.444;2022-12-18T09:07:33;4.30;1.00
26621;DHT22;14253;44.840;10.444;2022-12-18T09:10:00;4.30;1.00
26621;DHT22;14253;44.840;10.444;2022-12-18T09:12:34;4.40;1.00
26621;DHT22;14253;44.840;10.444;2022-12-18T09:15:07;4.50;1.00
26621;DHT22;14253;44.840;10.444;2022-12-18T09:17:34;4.60;1.00
26621;DHT22;14253;44.840;10.444;2022-12-18T09:20:00;4.70;1.00
26621;DHT22;14253;44.840;10.444;2022-12-18T09:22:26;4.70;1.00
26621;DHT22;14253;44.840;10.444;2022-12-18T09:24:52;4.80;1.00
26621;DHT22;14253;44.840;10.444;2022-12-18T09:27:19;4.90;1.00
26621;DHT22;14253;44.840;10.444;2022-12-18T09:29:45;4.80;1.00
26621;DHT22;14253;44.840;10.444;2022-12-18T09:32:11;4.80;1.00
26621;DHT22;14253;44.840;10.444;2022-12-18T09:34:37;4.80;1.00
26621;DHT22;14253;44.840;10.444;2022-12-18T09:37:03;4.80;1.00
26621;DHT22;14253;44.840;10.444;2022-12-18T09:39:29;4.80;1.00
26621;DHT22;14253;44.840;10.444;2022-12-18T09:41:57;4.90;1.00
26621;DHT22;14253;44.840;10.444;2022-12-18T09:44:41;4.90;1.00
26621;DHT22;14253;44.840;10.444;2022-12-18T09:50:16;5.00;1.00
26621;DHT22;14253;44.840;10.444;2022-12-18T09:52:48;5.10;1.00
26621;DHT22;14253;44.840;10.444;2022-12-18T09:55:24;5.10;1.00
26621;DHT22;14253;44.840;10.444;2022-12-18T09:58:00;5.20;1.00
26621;DHT22;14253;44.840;10.444;2022-12-18T10:00:28;5.20;1.00
26621;DHT22;14253;44.840;10.444;2022-12-18T10:03:03;5.40;1.00
26621;DHT22;14253;44.840;10.444;2022-12-18T10:05:59;5.40;1.00
26621;DHT22;14253;44.840;10.444;2022-12-18T10:09:00;5.30;1.00
26621;DHT22;14253;44.840;10.444;2022-12-18T10:25:55;5.60;99.90
26621;DHT22;14253;44.840;10.444;2022-12-18T10:28:26;5.60;99.90
26621;DHT22;14253;44.840;10.444;2022-12-18T10:30:52;5.60;99.90
26621;DHT22;14253;44.840;10.444;2022-12-18T10:33:21;5.60;99.90
26621;DHT22;14253;44.840;10.444;2022-12-18T10:35:50;5.60;99.90
26621;DHT22;14253;44.840;10.444;2022-12-18T10:40:55;5.60;99.90
26621;DHT22;14253;44.840;10.444;2022-12-18T10:43:34;5.70;99.90
26621;DHT22;14253;44.840;10.444;2022-12-18T10:46:20;5.80;99.90
26621;DHT22;14253;44.840;10.444;2022-12-18T10:51:24;5.80;99.90
26621;DHT22;14253;44.840;10.444;2022-12-18T10:53:57;5.70;99.90
26621;DHT22;14253;44.840;10.444;2022-12-18T10:56:26;5.70;99.90
26621;DHT22;14253;44.840;10.444;2022-12-18T10:58:58;5.80;99.90
26621;DHT22;14253;44.840;10.444;2022-12-18T11:01:25;5.80;99.90
26621;DHT22;14253;44.840;10.444;2022-12-18T11:06:22;6.10;99.90
26621;DHT22;14253;44.840;10.444;2022-12-18T11:09:04;6.20;99.90
26621;DHT22;14253;44.840;10.444;2022-12-18T11:11:32;6.30;99.90
26621;DHT22;14253;44.840;10.444;2022-12-18T11:16:32;6.40;99.90
26621;DHT22;14253;44.840;10.444;2022-12-18T11:19:25;6.50;99.90
26621;DHT22;14253;44.840;10.444;2022-12-18T11:21:52;6.60;99.90
26621;DHT22;14253;44.840;10.444;2022-12-18T11:24:32;6.60;99.90
26621;DHT22;14253;44.840;10.444;2022-12-18T11:27:00;6.50;99.90
26621;DHT22;14253;44.840;10.444;2022-12-18T11:29:38;6.40;99.90
26621;DHT22;14253;44.840;10.444;2022-12-18T11:35:10;6.50;99.90
26621;DHT22;14253;44.840;10.444;2022-12-18T11:37:40;6.70;99.90
26621;DHT22;14253;44.840;10.444;2022-12-18T11:40:20;6.90;99.90
26621;DHT22;14253;44.840;10.444;2022-12-18T11:43:14;6.80;99.90
26621;DHT22;14253;44.840;10.444;2022-12-18T11:45:53;6.70;99.90
26621;DHT22;14253;44.840;10.444;2022-12-18T11:48:37;6.70;99.90
26621;DHT22;14253;44.840;10.444;2022-12-18T11:51:15;6.70;99.90
26621;DHT22;14253;44.840;10.444;2022-12-18T11:53:43;6.60;99.90
26621;DHT22;14253;44.840;10.444;2022-12-18T11:56:29;6.60;99.90
26621;DHT22;14253;44.840;10.444;2022-12-18T12:18:47;6.70;99.90
26621;DHT22;14253;44.840;10.444;2022-12-18T12:23:58;6.50;99.90
26621;DHT22;14253;44.840;10.444;2022-12-18T12:27:02;6.50;99.90
26621;DHT22;14253;44.840;10.444;2022-12-18T12:35:27;6.30;99.90
26621;DHT22;14253;44.840;10.444;2022-12-18T12:41:08;6.20;99.90
26621;DHT22;14253;44.840;10.444;2022-12-18T12:43:57;6.30;99.90
26621;DHT22;14253;44.840;10.444;2022-12-18T12:46:25;6.40;99.90
26621;DHT22;14253;44.840;10.444;2022-12-18T12:48:55;6.50;99.90
26621;DHT22;14253;44.840;10.444;2022-12-18T12:51:33;6.60;99.90
26621;DHT22;14253;44.840;10.444;2022-12-18T12:54:02;6.60;99.90
26621;DHT22;14253;44.840;10.444;2022-12-18T12:56:45;6.60;99.90
26621;DHT22;14253;44.840;10.444;2022-12-18T13:04:47;6.60;99.90
26621;DHT22;14253;44.840;10.444;2022-12-18T13:07:32;6.90;99.90
26621;DHT22;14253;44.840;10.444;2022-12-18T13:12:59;7.00;99.90
26621;DHT22;14253;44.840;10.444;2022-12-18T13:15:45;7.00;99.90
26621;DHT22;14253;44.840;10.444;2022-12-18T13:18:12;7.10;99.90
26621;DHT22;14253;44.840;10.444;2022-12-18T13:20:50;7.20;99.90
26621;DHT22;14253;44.840;10.444;2022-12-18T13:23:37;7.10;99.90
26621;DHT22;14253;44.840;10.444;2022-12-18T13:34:21;7.00;99.90
26621;DHT22;14253;44.840;10.444;2022-12-18T13:36:48;7.00;99.90
26621;DHT22;14253;44.840;10.444;2022-12-18T13:41:48;7.10;99.90
26621;DHT22;14253;44.840;10.444;2022-12-18T13:44:39;7.10;99.90
26621;DHT22;14253;44.840;10.444;2022-12-18T13:47:31;7.10;99.90
26621;DHT22;14253;44.840;10.444;2022-12-18T13:49:58;7.10;99.90
26621;DHT22;14253;44.840;10.444;2022-12-18T13:52:28;7.20;99.90
26621;DHT22;14253;44.840;10.444;2022-12-18T13:55:00;7.20;99.90
26621;DHT22;14253;44.840;10.444;2022-12-18T13:57:33;7.10;99.90
26621;DHT22;14253;44.840;10.444;2022-12-18T14:02:48;7.00;99.90
26621;DHT22;14253;44.840;10.444;2022-12-18T14:05:26;7.00;99.90
26621;DHT22;14253;44.840;10.444;2022-12-18T14:07:53;6.90;99.90
26621;DHT22;14253;44.840;10.444;2022-12-18T14:10:20;6.90;99.90
26621;DHT22;14253;44.840;10.444;2022-12-18T14:12:50;6.90;99.90
26621;DHT22;14253;44.840;10.444;2022-12-18T14:18:01;6.90;99.90
26621;DHT22;14253;44.840;10.444;2022-12-18T14:20:29;6.80;99.90
26621;DHT22;14253;44.840;10.444;2022-12-18T14:22:56;6.80;99.90
26621;DHT22;14253;44.840;10.444;2022-12-18T14:25:25;6.70;99.90
26621;DHT22;14253;44.840;10.444;2022-12-18T14:30:39;6.70;99.90
26621;DHT22;14253;44.840;10.444;2022-12-18T14:35:59;6.60;99.90
26621;DHT22;14253;44.840;10.444;2022-12-18T14:38:37;6.60;99.90
26621;DHT22;14253;44.840;10.444;2022-12-18T14:43:38;6.60;99.90
26621;DHT22;14253;44.840;10.444;2022-12-18T14:51:53;6.50;99.90
26621;DHT22;14253;44.840;10.444;2022-12-18T14:54:21;6.40;99.90
26621;DHT22;14253;44.840;10.444;2022-12-18T14:57:35;6.30;99.90
26621;DHT22;14253;44.840;10.444;2022-12-18T14:59:36;6.40;99.90
26621;DHT22;14253;44.840;10.444;2022-12-18T15:04:41;6.30;99.90
26621;DHT22;14253;44.840;10.444;2022-12-18T15:07:20;6.20;99.90
26621;DHT22;14253;44.840;10.444;2022-12-18T15:10:12;6.20;99.90
26621;DHT22;14253;44.840;10.444;2022-12-18T15:12:46;6.10;99.90
26621;DHT22;14253;44.840;10.444;2022-12-18T15:21:10;6.00;99.90
26621;DHT22;14253;44.840;10.444;2022-12-18T15:23:57;5.90;99.90
26621;DHT22;14253;44.840;10.444;2022-12-18T15:26:23;5.80;99.90
26621;DHT22;14253;44.840;10.444;2022-12-18T15:28:53;5.80;99.90
26621;DHT22;14253;44.840;10.444;2022-12-18T15:36:23;5.60;99.90
26621;DHT22;14253;44.840;10.444;2022-12-18T15:38:50;5.50;99.90
26621;DHT22;14253;44.840;10.444;2022-12-18T15:41:20;5.50;99.90
26621;DHT22;14253;44.840;10.444;2022-12-18T15:43:48;5.40;99.90
26621;DHT22;14253;44.840;10.444;2022-12-18T15:46:24;5.40;99.90
26621;DHT22;14253;44.840;10.444;2022-12-18T15:48:55;5.30;99.90
26621;DHT22;14253;44.840;10.444;2022-12-18T15:51:35;5.30;99.90
26621;DHT22;14253;44.840;10.444;2022-12-18T15:54:05;5.20;99.90
26621;DHT22;14253;44.840;10.444;2022-12-18T15:56:32;5.20;99.90
26621;DHT22;14253;44.840;10.444;2022-12-18T15:59:18;5.10;99.90
26621;DHT22;14253;44.840;10.444;2022-12-18T16:01:47;5.10;99.90
26621;DHT22;14253;44.840;10.444;2022-12-18T16:04:16;5.00;99.90
26621;DHT22;14253;44.840;10.444;2022-12-18T16:06:42;5.00;99.90
26621;DHT22;14253;44.840;10.444;2022-12-18T16:09:09;4.90;99.90
26621;DHT22;14253;44.840;10.444;2022-12-18T16:11:36;4.90;99.90
26621;DHT22;14253;44.840;10.444;2022-12-18T16:14:27;4.80;99.90
26621;DHT22;14253;44.840;10.444;2022-12-18T16:16:58;4.70;99.90
26621;DHT22;14253;44.840;10.444;2022-12-18T16:19:25;4.70;99.90
26621;DHT22;14253;44.840;10.444;2022-12-18T16:21:53;4.60;99.90
26621;DHT22;14253;44.840;10.444;2022-12-18T16:24:25;4.60;99.90
26621;DHT22;14253;44.840;10.444;2022-12-18T16:26:52;4.60;99.90
26621;DHT22;14253;44.840;10.444;2022-12-18T16:29:19;4.50;99.90
26621;DHT22;14253;44.840;10.444;2022-12-18T16:31:50;4.50;99.90
26621;DHT22;14253;44.840;10.444;2022-12-18T16:34:27;4.50;99.90
26621;DHT22;14253;44.840;10.444;2022-12-18T16:36:58;4.50;99.90
26621;DHT22;14253;44.840;10.444;2022-12-18T16:39:25;4.40;99.90
26621;DHT22;14253;44.840;10.444;2022-12-18T16:41:52;4.40;99.90
26621;DHT22;14253;44.840;10.444;2022-12-18T16:44:19;4.40;99.90
26621;DHT22;14253;44.840;10.444;2022-12-18T16:46:47;4.30;99.90
26621;DHT22;14253;44.840;10.444;2022-12-18T16:49:15;4.30;99.90
26621;DHT22;14253;44.840;10.444;2022-12-18T16:51:42;4.30;99.90
26621;DHT22;14253;44.840;10.444;2022-12-18T16:54:09;4.30;99.90
26621;DHT22;14253;44.840;10.444;2022-12-18T16:56:35;4.20;99.90
26621;DHT22;14253;44.840;10.444;2022-12-18T16:59:02;4.20;99.90
26621;DHT22;14253;44.840;10.444;2022-12-18T17:01:30;4.30;99.90
26621;DHT22;14253;44.840;10.444;2022-12-18T17:04:02;4.30;99.90
26621;DHT22;14253;44.840;10.444;2022-12-18T17:06:33;4.30;99.90
26621;DHT22;14253;44.840;10.444;2022-12-18T17:09:01;4.40;99.90
26621;DHT22;14253;44.840;10.444;2022-12-18T17:11:29;4.40;99.90
26621;DHT22;14253;44.840;10.444;2022-12-18T17:13:56;4.40;99.90
26621;DHT22;14253;44.840;10.444;2022-12-18T17:16:23;4.40;99.90
26621;DHT22;14253;44.840;10.444;2022-12-18T17:18:50;4.40;99.90
26621;DHT22;14253;44.840;10.444;2022-12-18T17:21:17;4.40;99.90
26621;DHT22;14253;44.840;10.444;2022-12-18T17:23:44;4.40;99.90
26621;DHT22;14253;44.840;10.444;2022-12-18T17:26:12;4.50;99.90
26621;DHT22;14253;44.840;10.444;2022-12-18T17:28:40;4.50;99.90
26621;DHT22;14253;44.840;10.444;2022-12-18T17:31:17;4.50;99.90
26621;DHT22;14253;44.840;10.444;2022-12-18T17:33:43;4.50;99.90
26621;DHT22;14253;44.840;10.444;2022-12-18T17:36:10;4.50;99.90
26621;DHT22;14253;44.840;10.444;2022-12-18T17:38:38;4.50;99.90
26621;DHT22;14253;44.840;10.444;2022-12-18T17:41:07;4.50;99.90
26621;DHT22;14253;44.840;10.444;2022-12-18T17:43:34;4.50;99.90
26621;DHT22;14253;44.840;10.444;2022-12-18T17:46:02;4.50;99.90
26621;DHT22;14253;44.840;10.444;2022-12-18T17:48:30;4.50;99.90
26621;DHT22;14253;44.840;10.444;2022-12-18T17:51:04;4.50;99.90
26621;DHT22;14253;44.840;10.444;2022-12-18T17:53:31;4.50;99.90
26621;DHT22;14253;44.840;10.444;2022-12-18T17:55:59;4.50;99.90
26621;DHT22;14253;44.840;10.444;2022-12-18T17:58:27;4.50;99.90
26621;DHT22;14253;44.840;10.444;2022-12-18T18:00:53;4.50;99.90
26621;DHT22;14253;44.840;10.444;2022-12-18T18:03:20;4.40;99.90
26621;DHT22;14253;44.840;10.444;2022-12-18T18:05:46;4.40;99.90
26621;DHT22;14253;44.840;10.444;2022-12-18T18:08:12;4.40;99.90
26621;DHT22;14253;44.840;10.444;2022-12-18T18:10:39;4.40;99.90
26621;DHT22;14253;44.840;10.444;2022-12-18T18:13:18;4.40;99.90
26621;DHT22;14253;44.840;10.444;2022-12-18T18:16:04;4.40;99.90
26621;DHT22;14253;44.840;10.444;2022-12-18T18:18:31;4.50;99.90
26621;DHT22;14253;44.840;10.444;2022-12-18T18:20:57;4.50;99.90